El Moro, Colorado
Current Conditions -  °F | °C
As of 1:54 AM on Friday 24 Oct 2014 (Local Time) from KTAD Reporting Station
Clear Clear  
Wind Chill: 13°   Ceiling: Unl
Heat Index: 13°   Visibility: 10mi
Dew Point:   Wind: 17mph
Humidity: 47%   Direction: 250°WSW
Pressure: 30.2"   Gusts: NA
Location:  37.1661°N, 104.486°W
Report Text: KTAD 240754Z AUTO 25015KT 10SM CLR 13/02 A3020 RMK AO2 SLP160 T01280017
Loading
Personal Weather Stations






























Interactive Weather Map
Tropical Storm Tracking
New forecast layout! Learn more

10-Day Weather Forecast

Advertisements
Track Severe Weather on mobile